createdAt,value
2023-02-06T00:37:51.462Z,101953.34
2023-02-06T00:40:18.535Z,101957.78
2023-02-06T00:42:45.139Z,101947.25
2023-02-06T00:45:11.786Z,101958.53
2023-02-06T00:48:38.007Z,101954.44
2023-02-06T00:51:26.428Z,101948.56
2023-02-06T01:07:02.831Z,101942.66
2023-02-06T01:12:17.904Z,101935.22
2023-02-06T01:14:44.463Z,101930.97
2023-02-06T01:17:11.134Z,101934.84
2023-02-06T01:19:38.328Z,101941.94
2023-02-06T01:22:50.529Z,101957.38
2023-02-06T01:25:37.740Z,101953.56
2023-02-06T02:04:09.076Z,101939.31
2023-02-06T02:06:35.787Z,101928.53
2023-02-06T02:09:04.094Z,101929.06
2023-02-06T02:11:37.550Z,101933.66
2023-02-06T02:14:07.396Z,101938.19
2023-02-06T02:37:28.333Z,101924.28
2023-02-06T02:39:57.890Z,101935.06
2023-02-06T02:42:30.568Z,101933.34
2023-02-06T02:45:21.182Z,101934.22
2023-02-06T02:47:55.909Z,101936.06
2023-02-06T03:16:40.669Z,101953.25
2023-02-06T03:19:13.797Z,101959.72
2023-02-06T03:21:41.033Z,101957.88
2023-02-06T03:27:16.840Z,101953.97
2023-02-06T03:29:45.995Z,101947.63
2023-02-06T03:32:20.476Z,101950.16
2023-02-06T03:34:55.684Z,101956.03
2023-02-06T03:37:24.239Z,101958.69
2023-02-06T03:40:54.516Z,101961.56
2023-02-06T04:01:04.726Z,101971.78
2023-02-06T04:03:32.245Z,101958.31
2023-02-06T04:05:59.412Z,101957.19
2023-02-06T04:08:26.114Z,101960.69
2023-02-06T04:10:52.686Z,101958.31
2023-02-06T04:13:19.241Z,101951.13
2023-02-06T04:16:16.680Z,101941.87
2023-02-06T04:19:04.985Z,101942.56
2023-02-06T04:21:31.592Z,101958.87
2023-02-06T04:23:58.241Z,101954.22
2023-02-06T05:10:59.795Z,101975.75
2023-02-06T05:13:26.414Z,101968.41
2023-02-06T05:15:53.083Z,101969.53
2023-02-06T05:18:19.838Z,101971.38
2023-02-06T05:20:46.774Z,101978.81
2023-02-06T05:23:13.504Z,101973.06
2023-02-06T05:26:20.863Z,101973.47
2023-02-06T05:29:12.759Z,101970.66
2023-02-06T05:31:39.469Z,101969.41
2023-02-06T05:34:06.172Z,101973.78
2023-02-06T05:36:32.726Z,101973.63
2023-02-06T05:38:59.292Z,101971.94
2023-02-06T05:41:25.831Z,101974.75
2023-02-06T05:43:52.397Z,101980.22
2023-02-06T05:46:19.499Z,101982.03
2023-02-06T05:48:46.228Z,101985.38
2023-02-06T05:51:12.880Z,101986.31
2023-02-06T05:53:39.563Z,101988.88
2023-02-06T05:56:06.309Z,101991.12
2023-02-06T07:10:49.210Z,101977.12
2023-02-06T07:13:15.786Z,101968.72
2023-02-06T07:15:43.285Z,101979.91
2023-02-06T07:43:16.598Z,101986.72
2023-02-06T07:45:43.620Z,101983.50
2023-02-06T07:48:10.632Z,101986.75
2023-02-06T07:50:37.409Z,101992.28
2023-02-06T07:53:04.016Z,101985.47
2023-02-06T07:55:30.605Z,101990.69
2023-02-06T07:57:57.229Z,101981.12
2023-02-06T08:00:23.897Z,101972.63
2023-02-06T08:02:51.707Z,101977.59
2023-02-06T08:05:18.500Z,101972.63
2023-02-06T08:07:45.088Z,101983.06
2023-02-06T08:10:11.657Z,101981.84
2023-02-06T08:12:38.305Z,101976.66
2023-02-06T08:15:05.154Z,101977.34
2023-02-06T08:17:31.805Z,101978.63
2023-02-06T08:19:58.350Z,101978.09
2023-02-06T08:30:16.845Z,101987.97
2023-02-06T08:32:43.450Z,101986.75
2023-02-06T08:35:10.090Z,101986.66
2023-02-06T08:38:26.460Z,101987.69
2023-02-06T08:41:50.932Z,101984.53
2023-02-06T08:44:18.836Z,101981.63
2023-02-06T08:46:47.717Z,101986.06
2023-02-06T08:49:17.445Z,101966.56
2023-02-06T08:51:44.517Z,101977.50
2023-02-06T08:54:15.477Z,101971.97
2023-02-06T08:57:01.179Z,101974.28
2023-02-06T08:59:29.452Z,101973.16
2023-02-06T09:01:56.116Z,101967.81
2023-02-06T09:04:22.982Z,101972.84
2023-02-06T09:06:49.690Z,101971.00
2023-02-06T09:09:34.643Z,101973.88
2023-02-06T09:12:13.183Z,101971.31
2023-02-06T09:14:39.805Z,101970.94
2023-02-06T09:17:06.408Z,101973.22
2023-02-06T09:19:32.998Z,101986.28
2023-02-06T09:21:59.561Z,101981.19
2023-02-06T09:24:27.469Z,101986.13
2023-02-06T09:29:31.636Z,101975.84
2023-02-06T09:31:58.893Z,101972.84
2023-02-06T09:34:28.248Z,101978.03
2023-02-06T09:36:56.765Z,101971.97
2023-02-06T09:39:24.177Z,101980.41
2023-02-06T09:42:50.036Z,101974.19
2023-02-06T09:45:46.996Z,101975.50
2023-02-06T09:48:26.111Z,101959.41
2023-02-06T09:51:08.111Z,101968.97
2023-02-06T09:53:42.289Z,101966.78
2023-02-06T09:56:46.138Z,101965.75
2023-02-06T09:59:24.239Z,101965.63
2023-02-06T10:02:06.219Z,101967.28
2023-02-06T10:04:44.224Z,101964.56
2023-02-06T10:07:32.481Z,101949.84
2023-02-06T10:10:15.470Z,101953.50
2023-02-06T10:12:54.781Z,101948.78
2023-02-06T10:15:40.497Z,101945.13
2023-02-06T10:18:25.436Z,101949.94
2023-02-06T10:21:08.150Z,101940.19
2023-02-06T10:27:17.736Z,101931.75
2023-02-06T10:29:47.769Z,101934.06
2023-02-06T10:32:36.140Z,101933.50
2023-02-06T10:35:29.420Z,101929.41
2023-02-06T10:38:21.078Z,101933.59
2023-02-06T11:03:57.605Z,101899.44
2023-02-06T11:06:26.377Z,101901.97
2023-02-06T11:08:53.010Z,101902.59
2023-02-06T11:11:31.896Z,101901.25
2023-02-06T11:14:14.301Z,101898.66
2023-02-06T11:16:41.828Z,101881.50
2023-02-06T11:19:14.233Z,101884.56
2023-02-06T11:21:51.859Z,101879.62
2023-02-06T11:24:22.097Z,101884.09
2023-02-06T11:26:54.659Z,101877.84
2023-02-06T11:29:25.389Z,101877.25
2023-02-06T11:33:04.397Z,101869.12
2023-02-06T11:35:45.401Z,101865.44
2023-02-06T11:38:20.838Z,101862.03
2023-02-06T11:41:02.162Z,101866.28
2023-02-06T11:43:31.149Z,101862.56
2023-02-06T11:46:36.633Z,101855.88
2023-02-06T11:49:19.264Z,101858.97
2023-02-06T11:51:54.857Z,101846.31
2023-02-06T11:54:30.002Z,101840.84
2023-02-06T11:57:23.185Z,101836.81
2023-02-06T11:59:53.927Z,101840.50
2023-02-06T12:02:50.794Z,101838.38
2023-02-06T12:05:19.450Z,101836.25
2023-02-06T12:07:55.716Z,101838.34
2023-02-06T12:10:25.564Z,101838.59
2023-02-06T12:13:34.675Z,101832.63
2023-02-06T12:16:20.965Z,101832.25
2023-02-06T12:18:51.719Z,101820.19
2023-02-06T12:21:43.186Z,101817.41
2023-02-06T12:24:35.147Z,101817.09
2023-02-06T12:27:06.906Z,101818.88
2023-02-06T12:29:41.909Z,101821.50
2023-02-06T12:32:36.778Z,101821.44
2023-02-06T12:35:24.357Z,101811.88
2023-02-06T12:38:00.136Z,101808.56
2023-02-06T12:40:54.486Z,101805.47
2023-02-06T12:44:01.088Z,101807.25
2023-02-06T12:46:53.362Z,101792.53
2023-02-06T12:49:27.424Z,101804.19
2023-02-06T12:51:57.306Z,101813.66
2023-02-06T12:54:31.344Z,101810.28
2023-02-06T12:57:31.489Z,101816.97
2023-02-06T13:00:12.804Z,101802.78
2023-02-06T13:03:01.317Z,101801.00
2023-02-06T13:05:30.723Z,101799.66
2023-02-06T13:08:05.345Z,101804.91
2023-02-06T13:10:31.893Z,101800.75
2023-02-06T13:12:59.724Z,101798.31
2023-02-06T13:15:31.223Z,101807.78
2023-02-06T13:17:58.046Z,101807.50
2023-02-06T13:20:26.346Z,101808.66
2023-02-06T13:22:54.010Z,101799.22
2023-02-06T13:25:28.576Z,101804.31
2023-02-06T13:27:56.344Z,101807.94
2023-02-06T13:30:29.007Z,101805.81
2023-02-06T13:32:58.838Z,101796.81
2023-02-06T13:35:29.215Z,101803.03
2023-02-06T13:38:34.261Z,101803.88
2023-02-06T13:41:14.086Z,101802.91
2023-02-06T13:43:56.587Z,101807.81
2023-02-06T13:46:43.555Z,101794.28
2023-02-06T13:49:33.785Z,101801.84
2023-02-06T13:52:23.979Z,101811.97
2023-02-06T13:55:17.394Z,101805.59
2023-02-06T13:58:05.239Z,101810.81
2023-02-06T14:00:38.283Z,101817.03
2023-02-06T14:03:21.749Z,101817.28
2023-02-06T14:06:16.558Z,101808.47
2023-02-06T14:08:48.244Z,101817.88
2023-02-06T14:11:46.905Z,101826.09
2023-02-06T14:14:33.536Z,101820.25
2023-02-06T14:17:13.656Z,101833.87
2023-02-06T14:19:52.986Z,101827.47
2023-02-06T14:22:28.732Z,101824.09
2023-02-06T14:25:33.909Z,101822.06
2023-02-06T14:28:17.058Z,101825.94
2023-02-06T14:33:18.829Z,101832.56
2023-02-06T14:35:55.417Z,101828.97
2023-02-06T14:38:41.573Z,101834.66
2023-02-06T14:41:08.761Z,101836.66
2023-02-06T14:43:39.599Z,101834.50
2023-02-06T14:46:35.528Z,101843.75
2023-02-06T14:49:46.749Z,101841.06
2023-02-06T14:52:21.697Z,101836.31
2023-02-06T14:54:48.407Z,101840.59
2023-02-06T14:57:31.609Z,101848.84
2023-02-06T14:59:58.125Z,101842.63
2023-02-06T15:02:42.717Z,101850.00
2023-02-06T15:05:24.276Z,101847.34
2023-02-06T15:08:02.255Z,101836.69
2023-02-06T15:10:32.291Z,101834.66
2023-02-06T15:12:58.961Z,101842.66
2023-02-06T15:18:21.128Z,101848.62
2023-02-06T15:21:01.992Z,101853.63
2023-02-06T15:24:09.559Z,101859.38
2023-02-06T15:27:25.473Z,101859.34
2023-02-06T15:30:25.887Z,101862.09
2023-02-06T15:32:55.903Z,101866.75
2023-02-06T15:35:22.611Z,101859.28
2023-02-06T15:37:50.277Z,101863.84
2023-02-06T15:40:24.502Z,101859.75
2023-02-06T15:42:51.391Z,101857.31
2023-02-06T15:45:28.671Z,101858.28
2023-02-06T15:47:56.798Z,101857.81
2023-02-06T15:50:27.887Z,101864.66
2023-02-06T15:52:55.772Z,101867.63
2023-02-06T15:55:22.322Z,101877.37
2023-02-06T15:57:49.932Z,101881.56
2023-02-06T16:05:31.924Z,101893.53
2023-02-06T16:08:00.233Z,101902.25
2023-02-06T16:10:59.910Z,101903.75
2023-02-06T16:17:08.439Z,101915.88
2023-02-06T16:19:48.517Z,101912.84
2023-02-06T16:22:20.977Z,101905.78
2023-02-06T16:24:51.376Z,101914.69
2023-02-06T16:27:22.017Z,101916.00
2023-02-06T16:29:51.871Z,101904.25
2023-02-06T16:32:27.711Z,101915.69
2023-02-06T16:34:55.542Z,101915.19
2023-02-06T16:37:28.395Z,101918.56
2023-02-06T16:39:55.815Z,101911.34
2023-02-06T16:42:32.352Z,101910.66
2023-02-06T16:45:03.829Z,101922.25
2023-02-06T16:47:30.520Z,101917.22
2023-02-06T16:49:57.114Z,101923.75
2023-02-06T16:52:32.439Z,101926.97
2023-02-06T16:55:00.150Z,101942.59
2023-02-06T16:57:31.587Z,101926.13
2023-02-06T16:59:59.204Z,101939.91
2023-02-06T17:02:26.575Z,101935.88
2023-02-06T17:04:53.276Z,101935.19
2023-02-06T19:05:51.744Z,101986.72
2023-02-06T19:08:19.656Z,101984.25
2023-02-06T22:15:39.445Z,102118.94
2023-02-06T22:18:06.370Z,102120.09
2023-02-06T22:21:11.254Z,102120.69
2023-02-06T22:23:38.330Z,102125.75
2023-02-06T22:26:06.871Z,102132.69
2023-02-06T22:28:33.859Z,102127.59
2023-02-06T22:34:21.542Z,102126.06
2023-02-06T22:36:50.567Z,102136.06
2023-02-06T22:39:17.734Z,102121.31
2023-02-06T22:41:46.057Z,102128.47
2023-02-06T22:44:16.394Z,102135.09
2023-02-06T22:46:49.871Z,102133.81
2023-02-06T22:49:32.095Z,102134.25
2023-02-06T22:51:58.803Z,102130.16
2023-02-06T22:54:25.414Z,102131.87
2023-02-06T22:56:52.239Z,102131.72
2023-02-06T23:03:20.585Z,102139.84
2023-02-06T23:06:02.341Z,102136.22
2023-02-06T23:08:29.032Z,102133.19
2023-02-06T23:10:55.961Z,102133.62
2023-02-06T23:13:23.561Z,102133.88
2023-02-06T23:15:50.320Z,102135.03
2023-02-06T23:18:16.927Z,102128.03
2023-02-06T23:20:43.518Z,102129.69
2023-02-06T23:23:10.133Z,102130.72
2023-02-06T23:25:42.997Z,102133.66
2023-02-06T23:28:09.681Z,102140.97
2023-02-06T23:30:36.284Z,102138.06
2023-02-06T23:33:02.985Z,102138.47
2023-02-06T23:39:34.924Z,102145.03
2023-02-06T23:42:01.495Z,102138.44
2023-02-06T23:44:28.817Z,102141.38
2023-02-06T23:46:55.914Z,102139.66
2023-02-06T23:49:22.488Z,102136.13
